createdAt,value
2023-03-26T00:28:08.768Z,78.20
2023-03-26T00:33:11.214Z,78.40
2023-03-26T00:38:14.404Z,78.80
2023-03-26T00:43:19.181Z,79.40
2023-03-26T00:48:34.316Z,79.20
2023-03-26T00:53:47.190Z,79.10
2023-03-26T00:58:51.893Z,79.10
2023-03-26T01:04:06.857Z,79.60
2023-03-26T01:09:16.975Z,79.70
2023-03-26T01:14:24.925Z,80.30
2023-03-26T01:19:33.590Z,79.80
2023-03-26T01:24:37.880Z,80.50
2023-03-26T01:29:48.282Z,80.30
2023-03-26T01:35:18.478Z,80.20
2023-03-26T01:40:30.005Z,80.20
2023-03-26T01:45:38.221Z,80.50
2023-03-26T01:50:41.257Z,80.30
2023-03-26T01:55:59.425Z,80.20
2023-03-26T02:01:19.128Z,80.00
2023-03-26T02:06:31.011Z,79.80
2023-03-26T02:11:37.336Z,79.80
2023-03-26T02:16:39.957Z,80.40
2023-03-26T02:21:43.047Z,80.50
2023-03-26T02:26:47.498Z,80.80
2023-03-26T02:31:50.332Z,81.70
2023-03-26T02:36:53.006Z,81.70
2023-03-26T02:42:00.341Z,81.40
2023-03-26T02:47:04.658Z,83.30
2023-03-26T02:52:25.925Z,82.80
2023-03-26T02:57:32.857Z,82.90
2023-03-26T03:02:58.458Z,82.70
2023-03-26T03:08:07.134Z,83.30
2023-03-26T03:13:13.344Z,83.00
2023-03-26T03:18:18.856Z,82.80
2023-03-26T03:23:21.574Z,83.10
2023-03-26T03:28:30.915Z,83.20
2023-03-26T03:33:33.999Z,82.90
2023-03-26T03:38:36.675Z,83.20
2023-03-26T03:43:40.999Z,83.10
2023-03-26T03:48:51.068Z,82.80
2023-03-26T03:54:00.088Z,83.00
2023-03-26T03:59:30.008Z,82.40
2023-03-26T04:04:33.151Z,82.20
2023-03-26T04:09:40.600Z,82.30
2023-03-26T04:14:51.609Z,82.90
2023-03-26T04:19:56.032Z,82.60
2023-03-26T04:25:03.846Z,82.40
2023-03-26T04:30:30.816Z,82.10
2023-03-26T04:35:40.472Z,81.70
2023-03-26T04:40:44.604Z,81.90
2023-03-26T04:46:05.838Z,81.70
2023-03-26T04:51:15.799Z,81.50
2023-03-26T04:56:34.714Z,81.90
2023-03-26T05:01:53.246Z,81.90
2023-03-26T05:06:59.284Z,81.30
2023-03-26T05:12:10.244Z,80.90
2023-03-26T05:17:28.050Z,81.10
2023-03-26T05:22:30.951Z,81.00
2023-03-26T05:27:59.310Z,81.20
2023-03-26T05:33:09.526Z,81.10
2023-03-26T05:38:20.689Z,82.10
2023-03-26T05:43:23.575Z,82.10
2023-03-26T05:48:39.538Z,82.70
2023-03-26T05:53:43.657Z,82.90
2023-03-26T05:59:21.315Z,82.80
2023-03-26T06:04:46.005Z,83.30
2023-03-26T06:10:18.426Z,83.10
2023-03-26T06:15:22.082Z,83.30
2023-03-26T06:20:37.552Z,83.10
2023-03-26T06:25:51.597Z,83.70
2023-03-26T06:31:01.322Z,83.00
2023-03-26T06:36:12.917Z,82.20
2023-03-26T06:41:16.013Z,82.70
2023-03-26T06:46:33.918Z,83.10
2023-03-26T06:51:56.583Z,83.30
2023-03-26T06:57:38.399Z,82.90
2023-03-26T07:02:59.810Z,82.30
2023-03-26T07:08:42.653Z,81.80
2023-03-26T07:14:03.664Z,82.10
2023-03-26T07:19:24.671Z,80.80
2023-03-26T07:24:30.800Z,81.00
2023-03-26T07:30:09.101Z,80.10
2023-03-26T07:35:56.875Z,81.00
2023-03-26T07:41:33.539Z,80.50
2023-03-26T07:46:42.715Z,79.80
2023-03-26T07:51:59.491Z,80.30
2023-03-26T07:57:37.291Z,79.90
2023-03-26T08:03:46.714Z,79.80
2023-03-26T08:09:19.520Z,79.50
2023-03-26T08:14:54.887Z,79.40
2023-03-26T08:20:12.140Z,79.40
2023-03-26T08:25:27.148Z,79.10
2023-03-26T08:30:31.583Z,78.50
2023-03-26T08:35:34.093Z,77.60
2023-03-26T08:41:32.683Z,76.50
2023-03-26T08:47:09.967Z,76.40
2023-03-26T08:52:55.130Z,76.70
2023-03-26T08:58:55.599Z,76.50
2023-03-26T09:04:37.696Z,78.00
2023-03-26T09:10:11.933Z,77.10
2023-03-26T09:16:23.798Z,76.80
2023-03-26T09:22:13.869Z,77.10
2023-03-26T09:27:37.978Z,73.90
2023-03-26T09:33:32.765Z,75.40
2023-03-26T09:38:58.969Z,73.00
2023-03-26T09:44:55.454Z,75.40
2023-03-26T09:50:24.366Z,77.00
2023-03-26T09:55:49.169Z,80.50
2023-03-26T10:01:00.425Z,81.60
2023-03-26T10:06:36.583Z,82.50
2023-03-26T10:12:01.983Z,84.50
2023-03-26T10:17:31.357Z,83.00
2023-03-26T10:22:52.530Z,83.00
2023-03-26T10:28:14.594Z,83.30
2023-03-26T10:33:35.019Z,84.00
2023-03-26T10:39:00.922Z,83.20
2023-03-26T10:44:48.551Z,82.10
2023-03-26T10:50:23.998Z,81.60
2023-03-26T10:55:35.150Z,79.90
2023-03-26T11:00:49.840Z,81.10
2023-03-26T11:06:03.956Z,79.30
2023-03-26T11:11:20.386Z,78.90
2023-03-26T11:16:35.756Z,80.80
2023-03-26T11:21:51.896Z,80.40
2023-03-26T11:27:14.902Z,80.40
2023-03-26T11:32:26.919Z,79.70
2023-03-26T11:37:34.506Z,76.60
2023-03-26T11:42:37.822Z,77.60
2023-03-26T11:47:52.851Z,77.20
2023-03-26T11:53:02.651Z,77.00
2023-03-26T11:58:14.721Z,75.90
2023-03-26T12:03:18.724Z,76.40
2023-03-26T12:08:30.414Z,76.40
2023-03-26T12:13:52.033Z,75.00
2023-03-26T12:19:06.530Z,74.70
2023-03-26T12:24:28.492Z,73.30
2023-03-26T12:29:31.556Z,73.50
2023-03-26T12:34:38.015Z,71.40
2023-03-26T12:40:09.731Z,72.70
2023-03-26T12:45:12.417Z,72.70
2023-03-26T12:50:17.293Z,70.80
2023-03-26T12:55:45.041Z,71.10
2023-03-26T13:01:01.080Z,71.60
2023-03-26T13:06:27.071Z,73.70
2023-03-26T13:11:45.634Z,73.10
2023-03-26T13:16:57.920Z,71.50
2023-03-26T13:22:20.950Z,70.50
2023-03-26T13:27:40.895Z,71.00
2023-03-26T13:33:06.320Z,71.60
2023-03-26T13:38:20.849Z,72.20
2023-03-26T13:43:36.441Z,71.70
2023-03-26T13:48:48.985Z,70.00
2023-03-26T13:53:59.650Z,71.40
2023-03-26T13:59:10.914Z,71.70
2023-03-26T14:04:22.418Z,68.00
2023-03-26T14:09:34.456Z,67.60
2023-03-26T14:14:47.285Z,66.10
2023-03-26T14:20:51.853Z,67.10
2023-03-26T14:26:10.469Z,64.00
2023-03-26T14:31:25.179Z,60.30
2023-03-26T14:37:27.885Z,60.90
2023-03-26T14:42:42.363Z,62.20
2023-03-26T14:48:01.567Z,64.00
2023-03-26T14:53:17.713Z,64.60
2023-03-26T14:59:03.559Z,66.60
2023-03-26T15:04:56.670Z,67.70
2023-03-26T15:10:38.849Z,68.00
2023-03-26T15:16:31.494Z,68.50
2023-03-26T15:22:32.421Z,66.70
2023-03-26T15:28:08.702Z,66.00
2023-03-26T15:34:18.141Z,65.60
2023-03-26T15:39:59.246Z,66.60
2023-03-26T15:45:33.650Z,67.10
2023-03-26T15:50:51.841Z,67.00
2023-03-26T15:56:11.285Z,67.40
2023-03-26T16:01:30.896Z,68.30
2023-03-26T16:06:49.165Z,69.20
2023-03-26T16:11:56.876Z,70.00
2023-03-26T16:17:01.310Z,69.90
2023-03-26T16:22:11.796Z,70.90
2023-03-26T16:27:31.213Z,71.30
2023-03-26T16:32:36.396Z,72.00
2023-03-26T16:37:43.465Z,71.60
2023-03-26T16:42:53.824Z,72.10
2023-03-26T16:48:08.990Z,71.80
2023-03-26T16:53:38.607Z,72.30
2023-03-26T16:58:54.512Z,72.60
2023-03-26T17:04:02.978Z,72.80
2023-03-26T17:09:30.375Z,73.20
2023-03-26T17:14:51.307Z,73.40
2023-03-26T17:20:03.349Z,73.20
2023-03-26T17:25:23.108Z,73.40
2023-03-26T17:30:53.632Z,73.40
2023-03-26T17:36:31.747Z,73.80
2023-03-26T17:42:10.999Z,73.80
2023-03-26T17:47:29.673Z,74.10
2023-03-26T17:52:45.859Z,74.40
2023-03-26T17:57:54.349Z,74.30
2023-03-26T18:03:00.626Z,74.70
2023-03-26T18:08:43.713Z,74.80
2023-03-26T18:14:42.937Z,75.90
2023-03-26T18:19:52.158Z,76.30
2023-03-26T18:24:59.911Z,75.60
2023-03-26T18:30:16.426Z,76.30
2023-03-26T18:35:21.797Z,77.50
2023-03-26T18:40:32.821Z,78.60
2023-03-26T18:45:39.937Z,78.80
2023-03-26T18:50:42.839Z,79.30
2023-03-26T18:55:51.138Z,81.30
2023-03-26T19:00:59.286Z,79.20
2023-03-26T19:06:03.750Z,75.70
2023-03-26T19:11:11.235Z,78.60
2023-03-26T19:16:23.690Z,78.40
2023-03-26T19:21:26.636Z,77.80
2023-03-26T19:26:29.817Z,76.90
2023-03-26T19:31:37.451Z,76.00
2023-03-26T19:36:53.717Z,76.80
2023-03-26T19:41:56.314Z,76.20
2023-03-26T19:47:08.011Z,75.80
2023-03-26T19:52:15.390Z,74.80
2023-03-26T19:57:18.282Z,74.10
2023-03-26T20:02:22.791Z,75.50
2023-03-26T20:07:35.336Z,76.20
2023-03-26T20:12:38.805Z,77.10
2023-03-26T20:17:42.968Z,77.10
2023-03-26T20:22:45.622Z,76.40
2023-03-26T20:27:51.125Z,75.60
2023-03-26T20:33:12.832Z,75.00
2023-03-26T20:38:16.085Z,74.70
2023-03-26T20:43:19.812Z,74.60
2023-03-26T20:48:25.287Z,74.40
2023-03-26T20:53:27.976Z,74.30
2023-03-26T20:58:33.087Z,74.20
2023-03-26T21:03:41.905Z,74.20
2023-03-26T21:08:45.636Z,73.90
2023-03-26T21:14:00.607Z,74.20
2023-03-26T21:19:05.731Z,74.10
2023-03-26T21:24:19.445Z,74.30
2023-03-26T21:29:22.653Z,74.30
2023-03-26T21:34:30.593Z,74.10
2023-03-26T21:39:34.309Z,74.00
2023-03-26T21:44:38.333Z,74.40
2023-03-26T21:49:45.712Z,74.70
2023-03-26T21:54:49.003Z,75.40
2023-03-26T22:00:05.579Z,74.60
2023-03-26T22:05:19.421Z,74.90
2023-03-26T22:10:22.285Z,75.00
2023-03-26T22:15:24.925Z,74.60
2023-03-26T22:20:29.050Z,74.90
2023-03-26T22:25:31.689Z,74.90
2023-03-26T22:30:34.442Z,75.10
2023-03-26T22:35:41.040Z,75.10
2023-03-26T22:40:43.681Z,74.80
2023-03-26T22:45:49.945Z,74.70
2023-03-26T22:51:02.672Z,74.20
2023-03-26T22:56:06.202Z,74.30
2023-03-26T23:01:13.041Z,74.40
2023-03-26T23:06:17.179Z,74.70
2023-03-26T23:11:21.380Z,74.60
2023-03-26T23:16:23.825Z,74.50
2023-03-26T23:21:27.630Z,74.60
2023-03-26T23:26:34.941Z,74.50
2023-03-26T23:31:40.350Z,74.50
2023-03-26T23:36:44.358Z,74.70
2023-03-26T23:41:46.860Z,74.40
2023-03-26T23:46:49.421Z,74.10
2023-03-26T23:51:53.363Z,73.80
2023-03-26T23:56:56.051Z,75.20
